Terminal Aerodrome Forecast
Issued by NWS Charleston, WV

Current Version | Previous Version | Graphics & Text | Print | Product List | Glossary On
Versions: 1 2 3 4 5 6 7 8 9 10 11 12 13 14 15 16 17 18 19 20 21 22 23 24 25
727
FTUS41 KRLX 151738
TAFHTS
TAF
KHTS 151738Z 1518/1618 19008KT P6SM BKN150
     FM152000 22006KT P6SM OVC150
      TEMPO 1521/1522 4SM -SHRA OVC040
     FM152200 22005KT 4SM SHRA BR SCT025 OVC045
     FM160000 20006KT P6SM SCT025 OVC035
      TEMPO 1600/1601 4SM SHRA OVC025
     FM160100 21006KT P6SM OVC025
     FM160400 23007KT P6SM BKN018
     FM160600 25007KT P6SM BKN020
     FM160800 25007KT P6SM BKN035
     FM161000 26008G14KT P6SM SCT035
     FM161600 28008G14KT P6SM SCT025=

USA.gov is the U.S. government's official web portal to all federal, state and local government web resources and services.